createdAt,value
2022-12-25T00:00:34.820Z,36.90
2022-12-25T00:05:59.119Z,31.40
2022-12-25T00:11:21.192Z,40.70
2022-12-25T00:16:26.638Z,39.00
2022-12-25T00:21:50.102Z,36.40
2022-12-25T00:26:54.011Z,37.00
2022-12-25T00:31:57.411Z,43.00
2022-12-25T00:37:01.575Z,42.50
2022-12-25T00:42:20.348Z,44.50
2022-12-25T00:47:24.529Z,42.20
2022-12-25T00:52:29.131Z,45.20
2022-12-25T00:57:34.109Z,44.70
2022-12-25T01:02:37.721Z,43.30
2022-12-25T01:07:41.673Z,46.40
2022-12-25T01:12:44.980Z,46.50
2022-12-25T01:17:48.232Z,42.90
2022-12-25T01:22:51.813Z,37.50
2022-12-25T01:27:55.637Z,41.40
2022-12-25T01:32:59.190Z,42.70
2022-12-25T01:38:02.708Z,41.30
2022-12-25T01:43:33.285Z,44.50
2022-12-25T01:48:39.285Z,39.80
2022-12-25T01:53:42.526Z,38.70
2022-12-25T01:58:46.161Z,32.20
2022-12-25T02:03:49.785Z,31.70
2022-12-25T02:08:53.627Z,35.10
2022-12-25T02:13:57.703Z,33.40
2022-12-25T02:19:18.806Z,32.80
2022-12-25T02:24:22.346Z,32.60
2022-12-25T02:29:54.354Z,38.70
2022-12-25T02:35:06.611Z,36.60
2022-12-25T02:40:27.635Z,29.20
2022-12-25T02:46:10.394Z,36.90
2022-12-25T02:51:36.152Z,37.70
2022-12-25T02:57:01.130Z,39.00
2022-12-25T03:02:25.859Z,30.50
2022-12-25T03:07:31.188Z,38.00
2022-12-25T03:12:59.632Z,27.90
2022-12-25T03:18:07.279Z,40.50
2022-12-25T03:23:32.937Z,37.70
2022-12-25T03:28:36.336Z,31.80
2022-12-25T03:34:29.206Z,33.00
2022-12-25T03:40:33.104Z,32.80
2022-12-25T03:46:07.886Z,36.60
2022-12-25T03:51:33.001Z,35.30
2022-12-25T03:56:57.373Z,37.20
2022-12-25T04:02:19.721Z,30.90
2022-12-25T04:07:42.060Z,30.70
2022-12-25T04:13:03.967Z,34.80
2022-12-25T04:18:25.976Z,33.20
2022-12-25T04:23:47.941Z,31.20
2022-12-25T04:29:09.895Z,35.80
2022-12-25T04:34:31.896Z,57.20
2022-12-25T04:39:35.472Z,42.30
2022-12-25T04:44:39.151Z,35.60
2022-12-25T04:49:42.413Z,33.90
2022-12-25T04:54:45.926Z,45.20
2022-12-25T04:59:49.335Z,43.90
2022-12-25T05:04:53.007Z,43.90
2022-12-25T05:09:56.284Z,43.00
2022-12-25T05:14:59.784Z,46.70
2022-12-25T05:20:05.327Z,48.20
2022-12-25T05:25:08.833Z,50.50
2022-12-25T05:30:12.765Z,53.10
2022-12-25T05:35:16.179Z,55.80
2022-12-25T05:40:19.906Z,52.90
2022-12-25T05:45:23.196Z,58.50
2022-12-25T05:50:26.653Z,54.40
2022-12-25T05:55:46.010Z,54.90
2022-12-25T06:00:49.225Z,52.20
2022-12-25T06:05:53.587Z,54.60
2022-12-25T06:10:56.901Z,53.10
2022-12-25T06:16:04.344Z,50.60
2022-12-25T06:21:12.885Z,54.40
2022-12-25T06:26:18.750Z,53.10
2022-12-25T06:31:23.744Z,47.80
2022-12-25T06:36:29.631Z,48.20
2022-12-25T06:41:33.412Z,56.90
2022-12-25T06:46:36.948Z,53.10
2022-12-25T06:51:40.594Z,52.20
2022-12-25T06:56:43.807Z,58.30
2022-12-25T07:01:55.637Z,49.00
2022-12-25T07:07:06.110Z,49.50
2022-12-25T07:12:21.194Z,45.80
2022-12-25T07:17:24.738Z,46.50
2022-12-25T07:22:30.349Z,49.20
2022-12-25T07:27:33.880Z,39.10
2022-12-25T07:32:37.300Z,45.60
2022-12-25T07:37:40.602Z,53.30
2022-12-25T07:42:43.899Z,45.90
2022-12-25T07:47:47.411Z,49.90
2022-12-25T07:52:50.813Z,48.10
2022-12-25T07:57:54.177Z,52.20
2022-12-25T08:02:57.829Z,56.20
2022-12-25T08:08:01.296Z,52.40
2022-12-25T08:13:09.044Z,49.70
2022-12-25T08:18:15.965Z,50.00
2022-12-25T08:23:19.441Z,44.10
2022-12-25T08:28:23.007Z,49.10
2022-12-25T08:33:26.369Z,50.20
2022-12-25T08:38:29.721Z,42.60
2022-12-25T08:43:33.520Z,44.50
2022-12-25T08:48:37.041Z,47.00
2022-12-25T08:53:41.602Z,49.30
2022-12-25T08:58:45.518Z,48.90
2022-12-25T09:03:49.193Z,49.10
2022-12-25T09:08:52.684Z,55.10
2022-12-25T09:13:56.202Z,48.60
2022-12-25T09:18:59.734Z,46.70
2022-12-25T09:24:06.907Z,51.10
2022-12-25T09:29:10.488Z,55.40
2022-12-25T09:34:17.230Z,59.60
2022-12-25T09:39:23.513Z,60.20
2022-12-25T09:44:35.570Z,54.00
2022-12-25T09:49:53.730Z,60.80
2022-12-25T09:55:03.847Z,54.10
2022-12-25T10:00:19.997Z,57.50
2022-12-25T10:05:45.442Z,63.50
2022-12-25T10:11:34.697Z,59.50
2022-12-25T10:16:48.404Z,54.40
2022-12-25T10:21:57.182Z,55.20
2022-12-25T10:27:04.333Z,48.40
2022-12-25T10:32:10.490Z,51.10
2022-12-25T10:37:20.441Z,53.00
2022-12-25T10:42:46.629Z,53.90
2022-12-25T10:47:59.509Z,50.30
2022-12-25T10:53:06.432Z,52.70
2022-12-25T10:58:21.004Z,45.20
2022-12-25T11:03:29.228Z,43.90
2022-12-25T11:08:35.056Z,79.40
2022-12-25T11:13:49.704Z,67.20
2022-12-25T11:18:54.606Z,54.50
2022-12-25T11:24:03.602Z,48.20
2022-12-25T11:29:24.005Z,42.00
2022-12-25T11:34:48.736Z,51.10
2022-12-25T11:39:52.566Z,52.40
2022-12-25T11:45:19.090Z,38.50
2022-12-25T11:50:28.232Z,39.70
2022-12-25T11:55:41.454Z,38.60
2022-12-25T12:00:47.858Z,44.00
2022-12-25T12:06:28.848Z,38.40
2022-12-25T12:11:46.927Z,38.80
2022-12-25T12:16:50.498Z,42.30
2022-12-25T12:21:57.360Z,40.80
2022-12-25T12:27:33.381Z,43.70
2022-12-25T12:32:42.001Z,48.40
2022-12-25T12:37:47.553Z,55.30
2022-12-25T12:42:52.504Z,74.10
2022-12-25T12:47:56.272Z,56.50
2022-12-25T12:53:00.931Z,59.80
2022-12-25T12:58:06.467Z,84.10
2022-12-25T13:03:28.079Z,60.00
2022-12-25T13:08:46.845Z,56.00
2022-12-25T13:13:52.963Z,52.00
2022-12-25T13:18:57.049Z,52.00
2022-12-25T13:24:09.114Z,52.50
2022-12-25T13:29:32.196Z,54.70
2022-12-25T13:34:43.674Z,59.00
2022-12-25T13:39:52.134Z,57.40
2022-12-25T13:44:59.024Z,66.90
2022-12-25T13:50:30.330Z,66.60
2022-12-25T13:55:34.332Z,72.10
2022-12-25T14:00:49.909Z,77.90
2022-12-25T14:06:27.111Z,67.20
2022-12-25T14:11:32.444Z,75.90
2022-12-25T14:16:36.973Z,68.40
2022-12-25T14:21:49.448Z,73.80
2022-12-25T14:27:08.609Z,94.40
2022-12-25T14:32:17.449Z,78.40
2022-12-25T14:37:24.559Z,81.40
2022-12-25T14:42:30.792Z,86.10
2022-12-25T14:47:50.335Z,88.60
2022-12-25T14:52:54.298Z,78.30
2022-12-25T14:58:08.469Z,86.80
2022-12-25T15:03:25.139Z,78.20
2022-12-25T15:08:29.866Z,85.40
2022-12-25T15:13:34.401Z,89.80
2022-12-25T15:18:43.870Z,105.30
2022-12-25T15:23:47.696Z,101.20
2022-12-25T15:28:51.176Z,99.70
2022-12-25T15:33:56.771Z,88.80
2022-12-25T15:39:00.786Z,74.50
2022-12-25T15:44:06.308Z,80.30
2022-12-25T15:49:11.029Z,88.10
2022-12-25T15:54:14.838Z,88.70
2022-12-25T15:59:19.887Z,73.50
2022-12-25T16:04:24.473Z,90.50
2022-12-25T16:09:28.347Z,76.40
2022-12-25T16:14:32.139Z,72.40
2022-12-25T16:19:35.906Z,80.60
2022-12-25T16:24:39.466Z,66.60
2022-12-25T16:29:42.725Z,78.90
2022-12-25T16:34:48.606Z,83.60
2022-12-25T16:39:52.013Z,80.50
2022-12-25T16:44:56.930Z,83.20
2022-12-25T16:50:01.030Z,75.30
2022-12-25T16:55:05.448Z,76.90
2022-12-25T17:00:09.587Z,77.10
2022-12-25T17:05:13.253Z,71.70
2022-12-25T17:10:17.432Z,76.70
2022-12-25T17:15:20.848Z,68.00
2022-12-25T17:20:24.379Z,68.20
2022-12-25T17:25:28.063Z,71.50
2022-12-25T17:30:32.192Z,63.70
2022-12-25T17:35:37.443Z,51.50
2022-12-25T17:40:41.251Z,57.00
2022-12-25T17:45:45.099Z,49.10
2022-12-25T17:50:49.031Z,51.60
2022-12-25T17:55:59.465Z,52.00
2022-12-25T18:01:12.651Z,45.90
2022-12-25T18:06:19.392Z,48.10
2022-12-25T18:11:27.711Z,44.70
2022-12-25T18:16:33.793Z,46.30
2022-12-25T18:21:37.634Z,43.20
2022-12-25T18:26:42.921Z,46.10
2022-12-25T18:31:46.569Z,58.20
2022-12-25T18:36:49.879Z,50.30
2022-12-25T18:42:12.126Z,50.60
2022-12-25T18:47:15.938Z,48.70
2022-12-25T18:52:48.032Z,45.40
2022-12-25T18:57:42.999Z,47.90
2022-12-25T19:02:46.488Z,45.80
2022-12-25T19:07:50.429Z,47.50
2022-12-25T19:12:53.635Z,46.80
2022-12-25T19:17:57.157Z,45.20
2022-12-25T19:23:00.516Z,43.50
2022-12-25T19:28:04.176Z,39.20
2022-12-25T19:33:11.136Z,39.80
2022-12-25T19:38:20.416Z,44.50
2022-12-25T19:43:23.747Z,39.00
2022-12-25T19:48:28.077Z,40.70
2022-12-25T19:53:31.955Z,36.90
2022-12-25T19:58:35.708Z,33.60
2022-12-25T20:03:45.752Z,40.10
2022-12-25T20:08:55.022Z,38.80
2022-12-25T20:13:59.576Z,33.70
2022-12-25T20:19:04.094Z,37.90
2022-12-25T20:24:10.380Z,54.90
2022-12-25T20:29:14.743Z,47.10
2022-12-25T20:34:18.717Z,37.50
2022-12-25T20:39:22.111Z,155.40
2022-12-25T20:44:25.284Z,47.30
2022-12-25T20:49:32.810Z,32.40
2022-12-25T20:54:37.162Z,40.60
2022-12-25T20:59:43.466Z,48.90
2022-12-25T21:04:52.390Z,73.00
2022-12-25T21:09:57.662Z,53.00
2022-12-25T21:15:01.488Z,56.40
2022-12-25T21:20:05.333Z,50.50
2022-12-25T21:25:08.773Z,49.10
2022-12-25T21:30:14.892Z,41.40
2022-12-25T21:35:18.891Z,37.60
2022-12-25T21:40:22.255Z,36.90
2022-12-25T21:45:25.430Z,39.00
2022-12-25T21:50:46.947Z,43.80
2022-12-25T21:56:02.597Z,40.50
2022-12-25T22:01:06.361Z,33.50
2022-12-25T22:06:29.652Z,35.40
2022-12-25T22:11:52.081Z,38.20
2022-12-25T22:17:14.211Z,41.60
2022-12-25T22:22:21.580Z,35.20
2022-12-25T22:27:25.993Z,32.60
2022-12-25T22:32:29.691Z,34.50
2022-12-25T22:37:33.507Z,36.50
2022-12-25T22:42:37.848Z,32.00
2022-12-25T22:47:41.236Z,36.90
2022-12-25T22:52:45.955Z,35.50
2022-12-25T22:57:49.375Z,40.90
2022-12-25T23:02:53.054Z,33.00
2022-12-25T23:07:57.098Z,31.70
2022-12-25T23:13:19.340Z,31.30
2022-12-25T23:18:41.766Z,29.30
2022-12-25T23:24:03.844Z,27.60
2022-12-25T23:29:25.801Z,37.30
2022-12-25T23:34:29.454Z,31.30
2022-12-25T23:39:32.882Z,33.50
2022-12-25T23:44:36.315Z,26.50
2022-12-25T23:49:39.970Z,28.50
2022-12-25T23:54:55.325Z,27.90
